sensor_id;sensor_type;location;lat;lon;timestamp;temperature;humidity
12006;DHT22;6062;47.294;12.182;2023-03-19T00:00:06;6.10;51.80
12006;DHT22;6062;47.294;12.182;2023-03-19T00:02:33;6.20;51.80
12006;DHT22;6062;47.294;12.182;2023-03-19T00:04:59;6.20;51.70
12006;DHT22;6062;47.294;12.182;2023-03-19T00:07:25;6.20;52.40
12006;DHT22;6062;47.294;12.182;2023-03-19T00:09:51;6.20;51.70
12006;DHT22;6062;47.294;12.182;2023-03-19T00:12:17;6.20;51.70
12006;DHT22;6062;47.294;12.182;2023-03-19T00:14:42;6.20;51.80
12006;DHT22;6062;47.294;12.182;2023-03-19T00:17:08;6.20;51.80
12006;DHT22;6062;47.294;12.182;2023-03-19T00:19:34;6.30;51.90
12006;DHT22;6062;47.294;12.182;2023-03-19T00:22:00;6.20;51.80
12006;DHT22;6062;47.294;12.182;2023-03-19T00:24:26;6.30;51.90
12006;DHT22;6062;47.294;12.182;2023-03-19T00:26:53;6.30;51.90
12006;DHT22;6062;47.294;12.182;2023-03-19T00:29:19;6.30;51.90
12006;DHT22;6062;47.294;12.182;2023-03-19T00:31:45;6.30;51.90
12006;DHT22;6062;47.294;12.182;2023-03-19T00:34:10;6.30;51.90
12006;DHT22;6062;47.294;12.182;2023-03-19T00:36:37;6.30;52.00
12006;DHT22;6062;47.294;12.182;2023-03-19T00:39:04;6.30;52.10
12006;DHT22;6062;47.294;12.182;2023-03-19T00:41:30;6.30;52.00
12006;DHT22;6062;47.294;12.182;2023-03-19T00:43:57;6.30;52.00
12006;DHT22;6062;47.294;12.182;2023-03-19T00:46:24;6.30;52.00
12006;DHT22;6062;47.294;12.182;2023-03-19T00:48:50;6.30;52.00
12006;DHT22;6062;47.294;12.182;2023-03-19T00:51:20;6.30;52.00
12006;DHT22;6062;47.294;12.182;2023-03-19T00:53:47;6.30;52.10
12006;DHT22;6062;47.294;12.182;2023-03-19T00:56:14;6.30;52.20
12006;DHT22;6062;47.294;12.182;2023-03-19T00:58:42;6.20;52.10
12006;DHT22;6062;47.294;12.182;2023-03-19T01:01:11;6.20;52.10
12006;DHT22;6062;47.294;12.182;2023-03-19T01:03:38;6.20;52.20
12006;DHT22;6062;47.294;12.182;2023-03-19T01:06:05;6.20;52.20
12006;DHT22;6062;47.294;12.182;2023-03-19T01:08:31;6.20;52.40
12006;DHT22;6062;47.294;12.182;2023-03-19T01:11:09;6.20;52.40
12006;DHT22;6062;47.294;12.182;2023-03-19T01:13:39;6.20;52.60
12006;DHT22;6062;47.294;12.182;2023-03-19T01:16:06;6.10;52.50
12006;DHT22;6062;47.294;12.182;2023-03-19T01:18:33;6.20;52.60
12006;DHT22;6062;47.294;12.182;2023-03-19T01:20:59;6.20;52.70
12006;DHT22;6062;47.294;12.182;2023-03-19T01:23:25;6.20;52.90
12006;DHT22;6062;47.294;12.182;2023-03-19T01:25:51;6.10;52.80
12006;DHT22;6062;47.294;12.182;2023-03-19T01:28:17;6.20;52.90
12006;DHT22;6062;47.294;12.182;2023-03-19T01:30:43;6.20;52.90
12006;DHT22;6062;47.294;12.182;2023-03-19T01:33:09;6.20;52.90
12006;DHT22;6062;47.294;12.182;2023-03-19T01:35:35;6.20;52.90
12006;DHT22;6062;47.294;12.182;2023-03-19T01:38:01;6.20;53.00
12006;DHT22;6062;47.294;12.182;2023-03-19T01:40:27;6.20;53.00
12006;DHT22;6062;47.294;12.182;2023-03-19T01:45:41;6.30;53.30
12006;DHT22;6062;47.294;12.182;2023-03-19T01:48:18;6.30;53.00
12006;DHT22;6062;47.294;12.182;2023-03-19T01:50:52;6.30;53.10
12006;DHT22;6062;47.294;12.182;2023-03-19T01:53:22;6.40;52.90
12006;DHT22;6062;47.294;12.182;2023-03-19T01:55:55;6.40;52.80
12006;DHT22;6062;47.294;12.182;2023-03-19T01:58:27;6.40;52.70
12006;DHT22;6062;47.294;12.182;2023-03-19T02:00:54;6.40;52.60
12006;DHT22;6062;47.294;12.182;2023-03-19T02:03:20;6.40;52.50
12006;DHT22;6062;47.294;12.182;2023-03-19T02:05:47;6.40;52.50
12006;DHT22;6062;47.294;12.182;2023-03-19T02:08:16;6.40;52.40
12006;DHT22;6062;47.294;12.182;2023-03-19T02:10:45;6.40;52.30
12006;DHT22;6062;47.294;12.182;2023-03-19T02:13:12;6.40;52.30
12006;DHT22;6062;47.294;12.182;2023-03-19T02:15:39;6.40;52.20
12006;DHT22;6062;47.294;12.182;2023-03-19T02:18:05;6.50;52.40
12006;DHT22;6062;47.294;12.182;2023-03-19T02:23:03;6.50;52.40
12006;DHT22;6062;47.294;12.182;2023-03-19T02:28:14;6.50;52.60
12006;DHT22;6062;47.294;12.182;2023-03-19T02:30:42;6.50;52.40
12006;DHT22;6062;47.294;12.182;2023-03-19T02:33:13;6.50;52.50
12006;DHT22;6062;47.294;12.182;2023-03-19T02:35:44;6.50;52.50
12006;DHT22;6062;47.294;12.182;2023-03-19T02:38:12;6.50;52.40
12006;DHT22;6062;47.294;12.182;2023-03-19T02:40:44;6.50;52.30
12006;DHT22;6062;47.294;12.182;2023-03-19T02:43:15;6.50;52.30
12006;DHT22;6062;47.294;12.182;2023-03-19T02:45:41;6.50;52.30
12006;DHT22;6062;47.294;12.182;2023-03-19T02:48:07;6.50;52.10
12006;DHT22;6062;47.294;12.182;2023-03-19T02:50:33;6.50;52.00
12006;DHT22;6062;47.294;12.182;2023-03-19T02:52:58;6.50;51.80
12006;DHT22;6062;47.294;12.182;2023-03-19T02:55:24;6.50;51.70
12006;DHT22;6062;47.294;12.182;2023-03-19T02:57:50;6.50;51.60
12006;DHT22;6062;47.294;12.182;2023-03-19T03:00:16;6.50;51.60
12006;DHT22;6062;47.294;12.182;2023-03-19T03:02:43;6.50;51.60
12006;DHT22;6062;47.294;12.182;2023-03-19T03:05:09;6.50;51.50
12006;DHT22;6062;47.294;12.182;2023-03-19T03:07:35;6.40;51.40
12006;DHT22;6062;47.294;12.182;2023-03-19T03:10:00;6.40;51.40
12006;DHT22;6062;47.294;12.182;2023-03-19T03:12:26;6.40;51.40
12006;DHT22;6062;47.294;12.182;2023-03-19T03:14:52;6.40;51.40
12006;DHT22;6062;47.294;12.182;2023-03-19T03:17:18;6.40;51.40
12006;DHT22;6062;47.294;12.182;2023-03-19T03:19:43;6.30;51.40
12006;DHT22;6062;47.294;12.182;2023-03-19T03:22:09;6.30;51.30
12006;DHT22;6062;47.294;12.182;2023-03-19T03:24:35;6.30;51.30
12006;DHT22;6062;47.294;12.182;2023-03-19T03:27:01;6.30;51.30
12006;DHT22;6062;47.294;12.182;2023-03-19T03:29:27;6.30;51.30
12006;DHT22;6062;47.294;12.182;2023-03-19T03:31:52;6.30;51.30
12006;DHT22;6062;47.294;12.182;2023-03-19T03:34:18;6.30;51.40
12006;DHT22;6062;47.294;12.182;2023-03-19T03:36:44;6.30;51.50
12006;DHT22;6062;47.294;12.182;2023-03-19T03:39:11;6.30;51.50
12006;DHT22;6062;47.294;12.182;2023-03-19T03:41:38;6.30;51.40
12006;DHT22;6062;47.294;12.182;2023-03-19T03:44:04;6.30;51.20
12006;DHT22;6062;47.294;12.182;2023-03-19T03:46:30;6.30;51.20
12006;DHT22;6062;47.294;12.182;2023-03-19T03:48:55;6.30;51.20
12006;DHT22;6062;47.294;12.182;2023-03-19T03:51:21;6.30;51.20
12006;DHT22;6062;47.294;12.182;2023-03-19T03:53:47;6.30;51.30
12006;DHT22;6062;47.294;12.182;2023-03-19T03:56:13;6.30;51.20
12006;DHT22;6062;47.294;12.182;2023-03-19T03:58:39;6.30;51.40
12006;DHT22;6062;47.294;12.182;2023-03-19T04:01:05;6.40;51.30
12006;DHT22;6062;47.294;12.182;2023-03-19T04:03:32;6.40;51.30
12006;DHT22;6062;47.294;12.182;2023-03-19T04:05:58;6.40;51.30
12006;DHT22;6062;47.294;12.182;2023-03-19T04:08:23;6.40;51.20
12006;DHT22;6062;47.294;12.182;2023-03-19T04:10:49;6.30;51.20
12006;DHT22;6062;47.294;12.182;2023-03-19T04:13:15;6.30;51.20
12006;DHT22;6062;47.294;12.182;2023-03-19T04:15:44;6.30;51.10
12006;DHT22;6062;47.294;12.182;2023-03-19T04:18:10;6.30;51.10
12006;DHT22;6062;47.294;12.182;2023-03-19T04:20:36;6.20;51.00
12006;DHT22;6062;47.294;12.182;2023-03-19T04:23:02;6.20;50.80
12006;DHT22;6062;47.294;12.182;2023-03-19T04:25:28;6.20;50.80
12006;DHT22;6062;47.294;12.182;2023-03-19T04:27:56;6.10;50.90
12006;DHT22;6062;47.294;12.182;2023-03-19T04:30:22;6.10;51.20
12006;DHT22;6062;47.294;12.182;2023-03-19T04:32:49;6.10;51.20
12006;DHT22;6062;47.294;12.182;2023-03-19T04:35:14;6.10;51.20
12006;DHT22;6062;47.294;12.182;2023-03-19T04:37:42;6.00;51.20
12006;DHT22;6062;47.294;12.182;2023-03-19T04:40:13;6.00;51.30
12006;DHT22;6062;47.294;12.182;2023-03-19T04:42:40;6.00;51.50
12006;DHT22;6062;47.294;12.182;2023-03-19T04:45:06;6.00;51.50
12006;DHT22;6062;47.294;12.182;2023-03-19T04:47:32;6.00;51.50
12006;DHT22;6062;47.294;12.182;2023-03-19T04:49:58;6.00;51.60
12006;DHT22;6062;47.294;12.182;2023-03-19T04:52:23;6.00;51.60
12006;DHT22;6062;47.294;12.182;2023-03-19T04:54:49;5.90;51.60
12006;DHT22;6062;47.294;12.182;2023-03-19T04:57:15;6.00;52.40
12006;DHT22;6062;47.294;12.182;2023-03-19T04:59:41;6.00;51.90
12006;DHT22;6062;47.294;12.182;2023-03-19T05:02:07;5.90;52.20
12006;DHT22;6062;47.294;12.182;2023-03-19T05:04:32;5.90;52.10
12006;DHT22;6062;47.294;12.182;2023-03-19T05:06:58;5.90;52.10
12006;DHT22;6062;47.294;12.182;2023-03-19T05:09:24;5.90;52.00
12006;DHT22;6062;47.294;12.182;2023-03-19T05:11:50;5.80;52.00
12006;DHT22;6062;47.294;12.182;2023-03-19T05:14:16;5.80;52.10
12006;DHT22;6062;47.294;12.182;2023-03-19T05:16:41;5.80;52.10
12006;DHT22;6062;47.294;12.182;2023-03-19T05:19:07;5.80;52.20
12006;DHT22;6062;47.294;12.182;2023-03-19T05:21:33;5.70;52.30
12006;DHT22;6062;47.294;12.182;2023-03-19T05:23:59;5.70;52.30
12006;DHT22;6062;47.294;12.182;2023-03-19T05:26:24;5.70;52.30
12006;DHT22;6062;47.294;12.182;2023-03-19T05:28:50;5.60;52.30
12006;DHT22;6062;47.294;12.182;2023-03-19T05:31:16;5.60;52.40
12006;DHT22;6062;47.294;12.182;2023-03-19T05:33:42;5.60;52.40
12006;DHT22;6062;47.294;12.182;2023-03-19T05:36:07;5.60;52.60
12006;DHT22;6062;47.294;12.182;2023-03-19T05:38:33;5.50;52.60
12006;DHT22;6062;47.294;12.182;2023-03-19T05:41:03;5.50;52.60
12006;DHT22;6062;47.294;12.182;2023-03-19T05:43:30;5.50;52.80
12006;DHT22;6062;47.294;12.182;2023-03-19T05:45:56;5.40;52.80
12006;DHT22;6062;47.294;12.182;2023-03-19T05:48:22;5.40;53.00
12006;DHT22;6062;47.294;12.182;2023-03-19T05:50:47;5.40;53.40
12006;DHT22;6062;47.294;12.182;2023-03-19T05:53:13;5.40;53.50
12006;DHT22;6062;47.294;12.182;2023-03-19T05:55:39;5.30;54.20
12006;DHT22;6062;47.294;12.182;2023-03-19T05:58:05;5.40;53.90
12006;DHT22;6062;47.294;12.182;2023-03-19T06:00:32;5.40;54.40
12006;DHT22;6062;47.294;12.182;2023-03-19T06:02:58;5.40;54.90
12006;DHT22;6062;47.294;12.182;2023-03-19T06:05:24;5.50;56.00
12006;DHT22;6062;47.294;12.182;2023-03-19T06:07:49;5.60;56.00
12006;DHT22;6062;47.294;12.182;2023-03-19T06:10:15;5.80;56.00
12006;DHT22;6062;47.294;12.182;2023-03-19T06:12:41;5.90;56.00
12006;DHT22;6062;47.294;12.182;2023-03-19T06:15:08;6.10;56.00
12006;DHT22;6062;47.294;12.182;2023-03-19T06:17:34;6.30;56.20
12006;DHT22;6062;47.294;12.182;2023-03-19T06:20:00;6.50;56.20
12006;DHT22;6062;47.294;12.182;2023-03-19T06:22:26;6.70;56.30
12006;DHT22;6062;47.294;12.182;2023-03-19T06:24:52;6.90;56.40
12006;DHT22;6062;47.294;12.182;2023-03-19T06:27:17;7.20;56.50
12006;DHT22;6062;47.294;12.182;2023-03-19T06:29:43;7.40;56.40
12006;DHT22;6062;47.294;12.182;2023-03-19T06:32:09;7.70;56.30
12006;DHT22;6062;47.294;12.182;2023-03-19T06:34:35;7.90;56.00
12006;DHT22;6062;47.294;12.182;2023-03-19T06:37:02;8.20;55.70
12006;DHT22;6062;47.294;12.182;2023-03-19T06:39:27;8.50;55.40
12006;DHT22;6062;47.294;12.182;2023-03-19T06:41:53;8.80;55.20
12006;DHT22;6062;47.294;12.182;2023-03-19T06:44:19;9.00;54.60
12006;DHT22;6062;47.294;12.182;2023-03-19T06:46:44;9.30;54.20
12006;DHT22;6062;47.294;12.182;2023-03-19T06:49:10;9.60;53.80
12006;DHT22;6062;47.294;12.182;2023-03-19T06:51:36;9.80;53.30
12006;DHT22;6062;47.294;12.182;2023-03-19T06:54:02;10.10;52.80
12006;DHT22;6062;47.294;12.182;2023-03-19T06:56:28;10.30;52.80
12006;DHT22;6062;47.294;12.182;2023-03-19T06:58:54;10.50;52.80
12006;DHT22;6062;47.294;12.182;2023-03-19T07:01:20;10.90;52.90
12006;DHT22;6062;47.294;12.182;2023-03-19T07:03:46;11.20;52.40
12006;DHT22;6062;47.294;12.182;2023-03-19T07:06:12;11.50;51.80
12006;DHT22;6062;47.294;12.182;2023-03-19T07:08:37;11.80;51.30
12006;DHT22;6062;47.294;12.182;2023-03-19T07:11:05;12.20;51.10
12006;DHT22;6062;47.294;12.182;2023-03-19T07:13:32;12.60;50.90
12006;DHT22;6062;47.294;12.182;2023-03-19T07:15:58;13.00;50.30
12006;DHT22;6062;47.294;12.182;2023-03-19T07:18:25;13.40;49.40
12006;DHT22;6062;47.294;12.182;2023-03-19T07:20:51;13.90;48.50
12006;DHT22;6062;47.294;12.182;2023-03-19T07:23:20;14.40;47.60
12006;DHT22;6062;47.294;12.182;2023-03-19T07:25:45;14.80;46.60
12006;DHT22;6062;47.294;12.182;2023-03-19T07:28:12;15.20;45.90
12006;DHT22;6062;47.294;12.182;2023-03-19T07:30:38;15.50;45.30
12006;DHT22;6062;47.294;12.182;2023-03-19T07:33:06;16.00;44.90
12006;DHT22;6062;47.294;12.182;2023-03-19T07:35:33;16.40;44.00
12006;DHT22;6062;47.294;12.182;2023-03-19T07:37:59;16.80;43.50
12006;DHT22;6062;47.294;12.182;2023-03-19T07:40:26;17.30;42.00
12006;DHT22;6062;47.294;12.182;2023-03-19T07:42:52;17.70;40.20
12006;DHT22;6062;47.294;12.182;2023-03-19T07:45:18;18.00;39.70
12006;DHT22;6062;47.294;12.182;2023-03-19T07:47:44;18.20;39.70
12006;DHT22;6062;47.294;12.182;2023-03-19T07:50:10;18.40;38.90
12006;DHT22;6062;47.294;12.182;2023-03-19T07:52:36;18.50;37.20
12006;DHT22;6062;47.294;12.182;2023-03-19T07:55:02;18.60;37.00
12006;DHT22;6062;47.294;12.182;2023-03-19T07:57:28;18.70;36.30
12006;DHT22;6062;47.294;12.182;2023-03-19T07:59:53;18.70;35.40
12006;DHT22;6062;47.294;12.182;2023-03-19T08:02:19;18.60;35.00
12006;DHT22;6062;47.294;12.182;2023-03-19T08:04:45;18.30;35.20
12006;DHT22;6062;47.294;12.182;2023-03-19T08:07:11;18.10;35.70
12006;DHT22;6062;47.294;12.182;2023-03-19T08:09:37;17.70;35.90
12006;DHT22;6062;47.294;12.182;2023-03-19T08:12:04;17.50;36.40
12006;DHT22;6062;47.294;12.182;2023-03-19T08:14:32;17.10;36.80
12006;DHT22;6062;47.294;12.182;2023-03-19T08:16:58;16.80;37.30
12006;DHT22;6062;47.294;12.182;2023-03-19T08:19:24;16.40;38.20
12006;DHT22;6062;47.294;12.182;2023-03-19T08:21:49;16.20;39.00
12006;DHT22;6062;47.294;12.182;2023-03-19T08:24:15;16.10;39.70
12006;DHT22;6062;47.294;12.182;2023-03-19T08:26:42;16.00;39.90
12006;DHT22;6062;47.294;12.182;2023-03-19T08:29:07;16.00;39.80
12006;DHT22;6062;47.294;12.182;2023-03-19T08:31:33;16.00;39.60
12006;DHT22;6062;47.294;12.182;2023-03-19T08:34:00;16.00;39.50
12006;DHT22;6062;47.294;12.182;2023-03-19T08:36:29;16.00;40.10
12006;DHT22;6062;47.294;12.182;2023-03-19T08:38:56;16.10;40.80
12006;DHT22;6062;47.294;12.182;2023-03-19T08:41:23;16.30;40.90
12006;DHT22;6062;47.294;12.182;2023-03-19T08:43:49;16.50;40.80
12006;DHT22;6062;47.294;12.182;2023-03-19T08:46:16;16.80;40.70
12006;DHT22;6062;47.294;12.182;2023-03-19T08:48:42;17.00;40.60
12006;DHT22;6062;47.294;12.182;2023-03-19T08:51:09;17.30;40.50
12006;DHT22;6062;47.294;12.182;2023-03-19T08:53:35;17.60;40.20
12006;DHT22;6062;47.294;12.182;2023-03-19T08:56:03;17.90;39.10
12006;DHT22;6062;47.294;12.182;2023-03-19T08:58:31;18.20;38.30
12006;DHT22;6062;47.294;12.182;2023-03-19T09:01:01;18.40;37.90
12006;DHT22;6062;47.294;12.182;2023-03-19T09:03:27;18.50;38.00
12006;DHT22;6062;47.294;12.182;2023-03-19T09:05:57;18.80;38.10
12006;DHT22;6062;47.294;12.182;2023-03-19T09:08:25;19.00;37.10
12006;DHT22;6062;47.294;12.182;2023-03-19T09:10:51;19.20;36.50
12006;DHT22;6062;47.294;12.182;2023-03-19T09:13:16;19.30;35.10
12006;DHT22;6062;47.294;12.182;2023-03-19T09:15:42;19.30;35.00
12006;DHT22;6062;47.294;12.182;2023-03-19T09:18:08;19.30;35.20
12006;DHT22;6062;47.294;12.182;2023-03-19T09:20:33;19.30;35.60
12006;DHT22;6062;47.294;12.182;2023-03-19T09:22:59;19.30;35.20
12006;DHT22;6062;47.294;12.182;2023-03-19T09:25:25;19.20;34.70
12006;DHT22;6062;47.294;12.182;2023-03-19T09:27:50;19.10;34.60
12006;DHT22;6062;47.294;12.182;2023-03-19T09:30:16;19.00;35.10
12006;DHT22;6062;47.294;12.182;2023-03-19T09:32:42;19.00;35.60
12006;DHT22;6062;47.294;12.182;2023-03-19T09:35:08;19.00;35.80
12006;DHT22;6062;47.294;12.182;2023-03-19T09:37:34;19.00;35.40
12006;DHT22;6062;47.294;12.182;2023-03-19T09:40:00;19.10;35.60
12006;DHT22;6062;47.294;12.182;2023-03-19T09:45:33;19.00;34.50
12006;DHT22;6062;47.294;12.182;2023-03-19T09:48:06;18.90;34.20
12006;DHT22;6062;47.294;12.182;2023-03-19T09:50:39;18.60;34.20
12006;DHT22;6062;47.294;12.182;2023-03-19T09:53:12;18.30;34.60
12006;DHT22;6062;47.294;12.182;2023-03-19T09:55:58;18.00;35.30
12006;DHT22;6062;47.294;12.182;2023-03-19T09:58:32;17.80;35.70
12006;DHT22;6062;47.294;12.182;2023-03-19T10:01:00;17.60;36.10
12006;DHT22;6062;47.294;12.182;2023-03-19T10:06:22;17.40;36.90
12006;DHT22;6062;47.294;12.182;2023-03-19T10:12:30;17.20;36.80
12006;DHT22;6062;47.294;12.182;2023-03-19T10:15:30;17.10;36.30
12006;DHT22;6062;47.294;12.182;2023-03-19T10:18:16;16.90;36.10
12006;DHT22;6062;47.294;12.182;2023-03-19T10:20:46;16.50;36.70
12006;DHT22;6062;47.294;12.182;2023-03-19T10:26:25;15.80;37.90
12006;DHT22;6062;47.294;12.182;2023-03-19T10:32:02;15.20;39.50
12006;DHT22;6062;47.294;12.182;2023-03-19T10:34:42;14.90;40.50
12006;DHT22;6062;47.294;12.182;2023-03-19T10:37:18;14.60;41.30
12006;DHT22;6062;47.294;12.182;2023-03-19T10:39:49;14.40;42.30
12006;DHT22;6062;47.294;12.182;2023-03-19T10:45:31;14.30;42.40
12006;DHT22;6062;47.294;12.182;2023-03-19T10:48:00;14.30;42.30
12006;DHT22;6062;47.294;12.182;2023-03-19T10:50:42;14.30;42.90
12006;DHT22;6062;47.294;12.182;2023-03-19T10:55:45;14.20;42.70
12006;DHT22;6062;47.294;12.182;2023-03-19T10:58:18;14.20;42.40
12006;DHT22;6062;47.294;12.182;2023-03-19T11:00:48;14.30;42.10
12006;DHT22;6062;47.294;12.182;2023-03-19T11:03:51;14.30;42.10
12006;DHT22;6062;47.294;12.182;2023-03-19T11:08:56;14.30;42.60
12006;DHT22;6062;47.294;12.182;2023-03-19T11:14:08;14.40;43.00
12006;DHT22;6062;47.294;12.182;2023-03-19T11:22:45;14.80;42.10
12006;DHT22;6062;47.294;12.182;2023-03-19T11:25:27;14.90;42.10
12006;DHT22;6062;47.294;12.182;2023-03-19T11:28:02;15.10;42.00
12006;DHT22;6062;47.294;12.182;2023-03-19T11:37:10;15.10;41.00
12006;DHT22;6062;47.294;12.182;2023-03-19T11:40:20;14.90;41.10
12006;DHT22;6062;47.294;12.182;2023-03-19T11:52:11;13.40;43.90
12006;DHT22;6062;47.294;12.182;2023-03-19T12:00:26;12.60;45.90
12006;DHT22;6062;47.294;12.182;2023-03-19T12:03:11;12.40;46.90
12006;DHT22;6062;47.294;12.182;2023-03-19T12:08:44;12.10;47.20
12006;DHT22;6062;47.294;12.182;2023-03-19T12:11:25;12.00;47.10
12006;DHT22;6062;47.294;12.182;2023-03-19T12:17:28;11.70;47.50
12006;DHT22;6062;47.294;12.182;2023-03-19T12:25:42;11.20;49.50
12006;DHT22;6062;47.294;12.182;2023-03-19T12:33:31;11.10;49.60
12006;DHT22;6062;47.294;12.182;2023-03-19T12:35:59;11.10;49.80
12006;DHT22;6062;47.294;12.182;2023-03-19T12:51:44;11.10;50.50
12006;DHT22;6062;47.294;12.182;2023-03-19T12:54:18;11.00;50.70
12006;DHT22;6062;47.294;12.182;2023-03-19T13:08:24;11.20;51.60
12006;DHT22;6062;47.294;12.182;2023-03-19T13:11:05;11.40;51.50
12006;DHT22;6062;47.294;12.182;2023-03-19T13:19:46;11.90;51.10
12006;DHT22;6062;47.294;12.182;2023-03-19T13:22:21;12.10;50.70
12006;DHT22;6062;47.294;12.182;2023-03-19T13:24:51;12.20;50.30
12006;DHT22;6062;47.294;12.182;2023-03-19T13:27:21;12.40;50.10
12006;DHT22;6062;47.294;12.182;2023-03-19T13:33:20;12.70;49.30
12006;DHT22;6062;47.294;12.182;2023-03-19T13:35:38;12.80;48.90
12006;DHT22;6062;47.294;12.182;2023-03-19T13:38:20;13.00;48.90
12006;DHT22;6062;47.294;12.182;2023-03-19T13:40:52;13.10;48.30
12006;DHT22;6062;47.294;12.182;2023-03-19T13:51:02;13.40;47.30
12006;DHT22;6062;47.294;12.182;2023-03-19T13:56:02;13.40;47.30
12006;DHT22;6062;47.294;12.182;2023-03-19T13:58:30;13.50;47.30
12006;DHT22;6062;47.294;12.182;2023-03-19T14:03:58;13.50;46.90
12006;DHT22;6062;47.294;12.182;2023-03-19T14:08:59;13.50;46.70
12006;DHT22;6062;47.294;12.182;2023-03-19T14:11:34;13.50;46.50
12006;DHT22;6062;47.294;12.182;2023-03-19T14:14:03;13.40;46.60
12006;DHT22;6062;47.294;12.182;2023-03-19T14:16:37;13.30;46.50
12006;DHT22;6062;47.294;12.182;2023-03-19T14:19:11;13.30;46.60
12006;DHT22;6062;47.294;12.182;2023-03-19T14:22:00;13.20;46.70
12006;DHT22;6062;47.294;12.182;2023-03-19T14:24:37;13.10;46.90
12006;DHT22;6062;47.294;12.182;2023-03-19T14:27:25;13.00;46.90
12006;DHT22;6062;47.294;12.182;2023-03-19T14:29:55;12.90;47.70
12006;DHT22;6062;47.294;12.182;2023-03-19T14:32:33;12.90;46.70
12006;DHT22;6062;47.294;12.182;2023-03-19T14:35:05;12.80;46.70
12006;DHT22;6062;47.294;12.182;2023-03-19T14:37:46;12.70;46.70
12006;DHT22;6062;47.294;12.182;2023-03-19T14:40:26;12.60;46.60
12006;DHT22;6062;47.294;12.182;2023-03-19T14:43:07;12.50;46.80
12006;DHT22;6062;47.294;12.182;2023-03-19T14:48:58;12.10;47.30
12006;DHT22;6062;47.294;12.182;2023-03-19T14:51:37;12.00;47.80
12006;DHT22;6062;47.294;12.182;2023-03-19T14:54:47;11.80;47.90
12006;DHT22;6062;47.294;12.182;2023-03-19T14:57:34;11.70;48.10
12006;DHT22;6062;47.294;12.182;2023-03-19T15:00:01;11.60;48.20
12006;DHT22;6062;47.294;12.182;2023-03-19T15:02:50;11.50;48.20
12006;DHT22;6062;47.294;12.182;2023-03-19T15:05:27;11.50;48.60
12006;DHT22;6062;47.294;12.182;2023-03-19T15:08:00;11.40;48.50
12006;DHT22;6062;47.294;12.182;2023-03-19T15:10:33;11.30;48.70
12006;DHT22;6062;47.294;12.182;2023-03-19T15:13:36;11.30;48.80
12006;DHT22;6062;47.294;12.182;2023-03-19T15:16:27;11.20;49.10
12006;DHT22;6062;47.294;12.182;2023-03-19T15:19:16;11.20;48.90
12006;DHT22;6062;47.294;12.182;2023-03-19T15:21:50;11.00;48.60
12006;DHT22;6062;47.294;12.182;2023-03-19T15:24:16;10.90;48.80
12006;DHT22;6062;47.294;12.182;2023-03-19T15:26:43;10.70;49.00
12006;DHT22;6062;47.294;12.182;2023-03-19T15:29:10;10.50;49.50
12006;DHT22;6062;47.294;12.182;2023-03-19T15:31:45;10.40;50.00
12006;DHT22;6062;47.294;12.182;2023-03-19T15:34:20;10.20;50.50
12006;DHT22;6062;47.294;12.182;2023-03-19T15:36:58;10.10;50.70
12006;DHT22;6062;47.294;12.182;2023-03-19T15:39:32;10.10;51.00
12006;DHT22;6062;47.294;12.182;2023-03-19T15:42:03;10.00;51.40
12006;DHT22;6062;47.294;12.182;2023-03-19T15:44:34;9.90;51.40
12006;DHT22;6062;47.294;12.182;2023-03-19T15:47:06;9.80;51.70
12006;DHT22;6062;47.294;12.182;2023-03-19T15:49:41;9.70;51.90
12006;DHT22;6062;47.294;12.182;2023-03-19T15:52:13;9.60;51.90
12006;DHT22;6062;47.294;12.182;2023-03-19T15:54:41;9.60;52.10
12006;DHT22;6062;47.294;12.182;2023-03-19T15:57:10;9.50;52.40
12006;DHT22;6062;47.294;12.182;2023-03-19T15:59:39;9.50;52.40
12006;DHT22;6062;47.294;12.182;2023-03-19T16:02:29;9.40;52.30
12006;DHT22;6062;47.294;12.182;2023-03-19T16:04:58;9.30;53.40
12006;DHT22;6062;47.294;12.182;2023-03-19T16:10:41;9.30;53.00
12006;DHT22;6062;47.294;12.182;2023-03-19T16:13:29;9.20;53.70
12006;DHT22;6062;47.294;12.182;2023-03-19T16:16:18;9.10;53.80
12006;DHT22;6062;47.294;12.182;2023-03-19T16:18:54;9.10;55.70
12006;DHT22;6062;47.294;12.182;2023-03-19T16:21:28;9.00;54.80
12006;DHT22;6062;47.294;12.182;2023-03-19T16:26:56;8.90;55.50
12006;DHT22;6062;47.294;12.182;2023-03-19T16:29:32;8.80;55.80
12006;DHT22;6062;47.294;12.182;2023-03-19T16:32:13;8.70;55.70
12006;DHT22;6062;47.294;12.182;2023-03-19T16:34:44;8.60;55.50
12006;DHT22;6062;47.294;12.182;2023-03-19T16:42:47;8.40;56.70
12006;DHT22;6062;47.294;12.182;2023-03-19T16:47:51;8.30;56.50
12006;DHT22;6062;47.294;12.182;2023-03-19T16:50:31;8.20;56.70
12006;DHT22;6062;47.294;12.182;2023-03-19T16:53:05;8.10;57.10
12006;DHT22;6062;47.294;12.182;2023-03-19T16:55:39;8.10;56.90
12006;DHT22;6062;47.294;12.182;2023-03-19T16:58:14;8.00;57.10
12006;DHT22;6062;47.294;12.182;2023-03-19T17:00:43;7.90;57.40
12006;DHT22;6062;47.294;12.182;2023-03-19T17:03:15;7.90;57.60
12006;DHT22;6062;47.294;12.182;2023-03-19T17:05:43;7.80;57.60
12006;DHT22;6062;47.294;12.182;2023-03-19T17:08:10;7.80;57.50
12006;DHT22;6062;47.294;12.182;2023-03-19T17:10:38;7.70;57.60
12006;DHT22;6062;47.294;12.182;2023-03-19T17:13:22;7.60;57.60
12006;DHT22;6062;47.294;12.182;2023-03-19T17:15:54;7.50;58.10
12006;DHT22;6062;47.294;12.182;2023-03-19T17:18:24;7.30;58.30
12006;DHT22;6062;47.294;12.182;2023-03-19T17:21:12;7.30;58.40
12006;DHT22;6062;47.294;12.182;2023-03-19T17:23:40;7.20;59.30
12006;DHT22;6062;47.294;12.182;2023-03-19T17:28:43;7.10;59.20
12006;DHT22;6062;47.294;12.182;2023-03-19T17:31:30;7.00;59.10
12006;DHT22;6062;47.294;12.182;2023-03-19T17:34:21;6.90;59.60
12006;DHT22;6062;47.294;12.182;2023-03-19T17:36:59;6.90;59.80
12006;DHT22;6062;47.294;12.182;2023-03-19T17:39:26;6.80;59.60
12006;DHT22;6062;47.294;12.182;2023-03-19T17:41:56;6.70;59.50
12006;DHT22;6062;47.294;12.182;2023-03-19T17:44:22;6.70;59.40
12006;DHT22;6062;47.294;12.182;2023-03-19T17:46:51;6.70;59.60
12006;DHT22;6062;47.294;12.182;2023-03-19T17:49:24;6.60;59.90
12006;DHT22;6062;47.294;12.182;2023-03-19T17:51:56;6.60;60.00
12006;DHT22;6062;47.294;12.182;2023-03-19T17:54:23;6.60;60.00
12006;DHT22;6062;47.294;12.182;2023-03-19T17:56:53;6.50;60.00
12006;DHT22;6062;47.294;12.182;2023-03-19T17:59:20;6.50;60.30
12006;DHT22;6062;47.294;12.182;2023-03-19T18:01:46;6.50;60.40
12006;DHT22;6062;47.294;12.182;2023-03-19T18:04:14;6.50;60.30
12006;DHT22;6062;47.294;12.182;2023-03-19T18:06:45;6.50;60.40
12006;DHT22;6062;47.294;12.182;2023-03-19T18:09:19;6.50;60.50
12006;DHT22;6062;47.294;12.182;2023-03-19T18:11:50;6.50;60.60
12006;DHT22;6062;47.294;12.182;2023-03-19T18:14:16;6.50;60.30
12006;DHT22;6062;47.294;12.182;2023-03-19T18:16:42;6.50;60.40
12006;DHT22;6062;47.294;12.182;2023-03-19T18:19:25;6.50;60.40
12006;DHT22;6062;47.294;12.182;2023-03-19T18:21:55;6.50;61.20
12006;DHT22;6062;47.294;12.182;2023-03-19T18:24:20;6.50;60.70